sensor_id;sensor_type;location;lat;lon;timestamp;temperature;humidity
24468;DHT22;12634;50.852;5.676;2023-02-28T00:01:08;-1.30;99.90
24468;DHT22;12634;50.852;5.676;2023-02-28T00:03:35;-1.30;99.90
24468;DHT22;12634;50.852;5.676;2023-02-28T00:06:03;-1.30;99.90
24468;DHT22;12634;50.852;5.676;2023-02-28T00:08:30;-1.40;99.90
24468;DHT22;12634;50.852;5.676;2023-02-28T00:11:01;-1.30;99.90
24468;DHT22;12634;50.852;5.676;2023-02-28T00:13:31;-1.20;99.90
24468;DHT22;12634;50.852;5.676;2023-02-28T00:16:00;-1.30;99.90
24468;DHT22;12634;50.852;5.676;2023-02-28T00:18:27;-1.20;99.90
24468;DHT22;12634;50.852;5.676;2023-02-28T00:20:54;-1.30;99.90
24468;DHT22;12634;50.852;5.676;2023-02-28T00:23:21;-1.40;99.90
24468;DHT22;12634;50.852;5.676;2023-02-28T00:25:48;-1.60;99.90
24468;DHT22;12634;50.852;5.676;2023-02-28T00:28:16;-1.80;99.90
24468;DHT22;12634;50.852;5.676;2023-02-28T00:30:45;-2.00;99.90
24468;DHT22;12634;50.852;5.676;2023-02-28T00:33:12;-2.00;99.90
24468;DHT22;12634;50.852;5.676;2023-02-28T00:35:39;-2.00;99.90
24468;DHT22;12634;50.852;5.676;2023-02-28T00:38:07;-2.20;99.90
24468;DHT22;12634;50.852;5.676;2023-02-28T00:40:34;-2.10;99.90
24468;DHT22;12634;50.852;5.676;2023-02-28T00:43:01;-2.10;99.90
24468;DHT22;12634;50.852;5.676;2023-02-28T00:45:29;-2.10;99.90
24468;DHT22;12634;50.852;5.676;2023-02-28T00:47:58;-2.00;99.90
24468;DHT22;12634;50.852;5.676;2023-02-28T00:50:25;-2.20;99.90
24468;DHT22;12634;50.852;5.676;2023-02-28T00:52:52;-2.20;99.90
24468;DHT22;12634;50.852;5.676;2023-02-28T00:55:19;-2.10;99.90
24468;DHT22;12634;50.852;5.676;2023-02-28T00:57:47;-2.00;99.90
24468;DHT22;12634;50.852;5.676;2023-02-28T01:00:14;-2.20;99.90
24468;DHT22;12634;50.852;5.676;2023-02-28T01:02:42;-2.40;99.90
24468;DHT22;12634;50.852;5.676;2023-02-28T01:05:10;-2.40;99.90
24468;DHT22;12634;50.852;5.676;2023-02-28T01:07:37;-2.30;99.90
24468;DHT22;12634;50.852;5.676;2023-02-28T01:10:05;-2.30;99.90
24468;DHT22;12634;50.852;5.676;2023-02-28T01:12:32;-2.20;99.90
24468;DHT22;12634;50.852;5.676;2023-02-28T01:15:00;-2.10;99.90
24468;DHT22;12634;50.852;5.676;2023-02-28T01:17:27;-1.90;99.90
24468;DHT22;12634;50.852;5.676;2023-02-28T01:19:54;-1.90;99.90
24468;DHT22;12634;50.852;5.676;2023-02-28T01:22:23;-1.90;99.90
24468;DHT22;12634;50.852;5.676;2023-02-28T01:24:50;-1.90;99.90
24468;DHT22;12634;50.852;5.676;2023-02-28T01:27:18;-1.90;99.90
24468;DHT22;12634;50.852;5.676;2023-02-28T01:29:45;-1.90;99.90
24468;DHT22;12634;50.852;5.676;2023-02-28T01:32:12;-2.00;99.90
24468;DHT22;12634;50.852;5.676;2023-02-28T01:34:39;-2.10;99.90
24468;DHT22;12634;50.852;5.676;2023-02-28T01:37:06;-2.20;99.90
24468;DHT22;12634;50.852;5.676;2023-02-28T01:39:35;-2.00;99.90
24468;DHT22;12634;50.852;5.676;2023-02-28T01:42:02;-2.20;99.90
24468;DHT22;12634;50.852;5.676;2023-02-28T01:44:55;-2.30;99.90
24468;DHT22;12634;50.852;5.676;2023-02-28T01:47:25;-2.40;99.90
24468;DHT22;12634;50.852;5.676;2023-02-28T01:49:54;-2.50;99.90
24468;DHT22;12634;50.852;5.676;2023-02-28T01:52:22;-2.50;99.90
24468;DHT22;12634;50.852;5.676;2023-02-28T01:54:54;-2.30;99.90
24468;DHT22;12634;50.852;5.676;2023-02-28T01:57:25;-2.30;99.90
24468;DHT22;12634;50.852;5.676;2023-02-28T01:59:57;-2.20;99.90
24468;DHT22;12634;50.852;5.676;2023-02-28T02:02:26;-2.10;99.90
24468;DHT22;12634;50.852;5.676;2023-02-28T02:04:56;-2.30;99.90
24468;DHT22;12634;50.852;5.676;2023-02-28T02:07:25;-2.30;99.90
24468;DHT22;12634;50.852;5.676;2023-02-28T02:10:03;-2.40;99.90
24468;DHT22;12634;50.852;5.676;2023-02-28T02:12:41;-2.30;99.90
24468;DHT22;12634;50.852;5.676;2023-02-28T02:15:13;-2.40;99.90
24468;DHT22;12634;50.852;5.676;2023-02-28T02:17:44;-2.40;99.90
24468;DHT22;12634;50.852;5.676;2023-02-28T02:20:32;-2.20;99.90
24468;DHT22;12634;50.852;5.676;2023-02-28T02:29:48;-2.10;99.90
24468;DHT22;12634;50.852;5.676;2023-02-28T02:35:43;-2.30;99.90
24468;DHT22;12634;50.852;5.676;2023-02-28T02:38:17;-2.20;99.90
24468;DHT22;12634;50.852;5.676;2023-02-28T02:40:53;-2.20;99.90
24468;DHT22;12634;50.852;5.676;2023-02-28T02:43:27;-2.40;99.90
24468;DHT22;12634;50.852;5.676;2023-02-28T02:45:59;-2.50;99.90
24468;DHT22;12634;50.852;5.676;2023-02-28T02:48:30;-2.40;99.90
24468;DHT22;12634;50.852;5.676;2023-02-28T02:51:01;-2.30;99.90
24468;DHT22;12634;50.852;5.676;2023-02-28T02:53:34;-2.30;99.90
24468;DHT22;12634;50.852;5.676;2023-02-28T02:56:04;-2.30;99.90
24468;DHT22;12634;50.852;5.676;2023-02-28T02:58:37;-2.20;99.90
24468;DHT22;12634;50.852;5.676;2023-02-28T03:01:08;-2.10;99.90
24468;DHT22;12634;50.852;5.676;2023-02-28T03:03:37;-2.10;99.90
24468;DHT22;12634;50.852;5.676;2023-02-28T03:06:06;-2.10;99.90
24468;DHT22;12634;50.852;5.676;2023-02-28T03:08:35;-2.20;99.90
24468;DHT22;12634;50.852;5.676;2023-02-28T03:11:04;-2.20;99.90
24468;DHT22;12634;50.852;5.676;2023-02-28T03:14:00;-2.30;99.90
24468;DHT22;12634;50.852;5.676;2023-02-28T03:16:59;-2.50;99.90
24468;DHT22;12634;50.852;5.676;2023-02-28T03:19:47;-2.60;99.90
24468;DHT22;12634;50.852;5.676;2023-02-28T03:22:33;-2.80;99.90
24468;DHT22;12634;50.852;5.676;2023-02-28T03:25:07;-2.50;99.90
24468;DHT22;12634;50.852;5.676;2023-02-28T03:27:39;-2.50;99.90
24468;DHT22;12634;50.852;5.676;2023-02-28T03:30:11;-2.40;99.90
24468;DHT22;12634;50.852;5.676;2023-02-28T03:32:46;-2.20;99.90
24468;DHT22;12634;50.852;5.676;2023-02-28T03:35:22;-2.00;99.90
24468;DHT22;12634;50.852;5.676;2023-02-28T03:37:54;-1.80;99.90
24468;DHT22;12634;50.852;5.676;2023-02-28T03:40:27;-1.70;99.90
24468;DHT22;12634;50.852;5.676;2023-02-28T03:43:01;-1.60;99.90
24468;DHT22;12634;50.852;5.676;2023-02-28T03:45:30;-1.50;99.90
24468;DHT22;12634;50.852;5.676;2023-02-28T03:48:02;-1.50;99.90
24468;DHT22;12634;50.852;5.676;2023-02-28T03:50:35;-1.60;99.90
24468;DHT22;12634;50.852;5.676;2023-02-28T03:53:08;-1.70;99.90
24468;DHT22;12634;50.852;5.676;2023-02-28T03:55:40;-1.60;99.90
24468;DHT22;12634;50.852;5.676;2023-02-28T03:58:14;-1.50;99.90
24468;DHT22;12634;50.852;5.676;2023-02-28T04:00:46;-1.30;99.90
24468;DHT22;12634;50.852;5.676;2023-02-28T04:03:14;-1.20;99.90
24468;DHT22;12634;50.852;5.676;2023-02-28T04:05:48;-1.20;99.90
24468;DHT22;12634;50.852;5.676;2023-02-28T04:08:18;-1.30;99.90
24468;DHT22;12634;50.852;5.676;2023-02-28T04:10:50;-1.40;99.90
24468;DHT22;12634;50.852;5.676;2023-02-28T04:13:18;-1.40;99.90
24468;DHT22;12634;50.852;5.676;2023-02-28T04:15:45;-1.50;99.90
24468;DHT22;12634;50.852;5.676;2023-02-28T04:18:12;-1.60;99.90
24468;DHT22;12634;50.852;5.676;2023-02-28T04:20:39;-1.60;99.90
24468;DHT22;12634;50.852;5.676;2023-02-28T04:23:06;-1.50;99.90
24468;DHT22;12634;50.852;5.676;2023-02-28T04:25:35;-1.60;99.90
24468;DHT22;12634;50.852;5.676;2023-02-28T04:28:02;-1.50;99.90
24468;DHT22;12634;50.852;5.676;2023-02-28T04:30:29;-1.40;99.90
24468;DHT22;12634;50.852;5.676;2023-02-28T04:32:58;-1.40;99.90
24468;DHT22;12634;50.852;5.676;2023-02-28T04:35:25;-1.40;99.90
24468;DHT22;12634;50.852;5.676;2023-02-28T04:37:52;-1.40;99.90
24468;DHT22;12634;50.852;5.676;2023-02-28T04:40:19;-1.40;99.90
24468;DHT22;12634;50.852;5.676;2023-02-28T04:42:48;-1.50;99.90
24468;DHT22;12634;50.852;5.676;2023-02-28T04:45:15;-1.60;99.90
24468;DHT22;12634;50.852;5.676;2023-02-28T04:47:43;-1.80;99.90
24468;DHT22;12634;50.852;5.676;2023-02-28T04:50:10;-1.90;99.90
24468;DHT22;12634;50.852;5.676;2023-02-28T04:52:37;-2.00;99.90
24468;DHT22;12634;50.852;5.676;2023-02-28T04:55:05;-1.90;99.90
24468;DHT22;12634;50.852;5.676;2023-02-28T04:57:32;-1.90;99.90
24468;DHT22;12634;50.852;5.676;2023-02-28T05:00:01;-1.90;99.90
24468;DHT22;12634;50.852;5.676;2023-02-28T05:02:34;-2.00;99.90
24468;DHT22;12634;50.852;5.676;2023-02-28T05:05:01;-2.10;99.90
24468;DHT22;12634;50.852;5.676;2023-02-28T05:07:28;-2.50;99.90
24468;DHT22;12634;50.852;5.676;2023-02-28T05:09:55;-2.60;99.90
24468;DHT22;12634;50.852;5.676;2023-02-28T05:12:23;-2.40;99.90
24468;DHT22;12634;50.852;5.676;2023-02-28T05:14:50;-2.40;99.90
24468;DHT22;12634;50.852;5.676;2023-02-28T05:17:18;-2.60;99.90
24468;DHT22;12634;50.852;5.676;2023-02-28T05:19:45;-2.70;99.90
24468;DHT22;12634;50.852;5.676;2023-02-28T05:22:14;-2.80;99.90
24468;DHT22;12634;50.852;5.676;2023-02-28T05:24:42;-2.70;99.90
24468;DHT22;12634;50.852;5.676;2023-02-28T05:27:10;-2.50;99.90
24468;DHT22;12634;50.852;5.676;2023-02-28T05:29:37;-2.70;99.90
24468;DHT22;12634;50.852;5.676;2023-02-28T05:32:09;-2.90;99.90
24468;DHT22;12634;50.852;5.676;2023-02-28T05:34:38;-3.00;99.90
24468;DHT22;12634;50.852;5.676;2023-02-28T05:37:06;-2.90;99.90
24468;DHT22;12634;50.852;5.676;2023-02-28T05:39:33;-2.80;99.90
24468;DHT22;12634;50.852;5.676;2023-02-28T05:42:00;-2.40;99.90
24468;DHT22;12634;50.852;5.676;2023-02-28T05:44:28;-2.50;99.90
24468;DHT22;12634;50.852;5.676;2023-02-28T05:46:55;-2.60;99.90
24468;DHT22;12634;50.852;5.676;2023-02-28T05:49:22;-2.60;99.90
24468;DHT22;12634;50.852;5.676;2023-02-28T05:51:50;-2.70;99.90
24468;DHT22;12634;50.852;5.676;2023-02-28T05:54:17;-2.70;99.90
24468;DHT22;12634;50.852;5.676;2023-02-28T05:56:44;-2.70;99.90
24468;DHT22;12634;50.852;5.676;2023-02-28T05:59:12;-2.70;99.90
24468;DHT22;12634;50.852;5.676;2023-02-28T06:01:41;-2.60;99.90
24468;DHT22;12634;50.852;5.676;2023-02-28T06:04:14;-2.70;99.90
24468;DHT22;12634;50.852;5.676;2023-02-28T06:06:44;-2.80;99.90
24468;DHT22;12634;50.852;5.676;2023-02-28T06:09:13;-3.00;99.90
24468;DHT22;12634;50.852;5.676;2023-02-28T06:11:41;-3.20;99.90
24468;DHT22;12634;50.852;5.676;2023-02-28T06:14:14;-3.20;99.90
24468;DHT22;12634;50.852;5.676;2023-02-28T06:16:41;-3.30;99.90
24468;DHT22;12634;50.852;5.676;2023-02-28T06:19:09;-3.30;99.90
24468;DHT22;12634;50.852;5.676;2023-02-28T06:21:37;-3.20;99.90
24468;DHT22;12634;50.852;5.676;2023-02-28T06:24:04;-3.00;99.90
24468;DHT22;12634;50.852;5.676;2023-02-28T06:26:33;-3.10;99.90
24468;DHT22;12634;50.852;5.676;2023-02-28T06:29:00;-3.10;99.90
24468;DHT22;12634;50.852;5.676;2023-02-28T06:31:28;-2.90;99.90
24468;DHT22;12634;50.852;5.676;2023-02-28T06:33:55;-3.00;99.90
24468;DHT22;12634;50.852;5.676;2023-02-28T06:36:22;-2.90;99.90
24468;DHT22;12634;50.852;5.676;2023-02-28T06:38:50;-2.70;99.90
24468;DHT22;12634;50.852;5.676;2023-02-28T06:41:21;-2.60;99.90
24468;DHT22;12634;50.852;5.676;2023-02-28T06:43:50;-2.40;99.90
24468;DHT22;12634;50.852;5.676;2023-02-28T06:46:17;-2.20;99.90
24468;DHT22;12634;50.852;5.676;2023-02-28T06:48:45;-2.00;99.90
24468;DHT22;12634;50.852;5.676;2023-02-28T06:51:14;-1.90;99.90
24468;DHT22;12634;50.852;5.676;2023-02-28T06:53:42;-1.70;99.90
24468;DHT22;12634;50.852;5.676;2023-02-28T06:56:10;-1.30;99.90
24468;DHT22;12634;50.852;5.676;2023-02-28T06:58:38;-1.10;99.90
24468;DHT22;12634;50.852;5.676;2023-02-28T07:01:08;-0.60;99.90
24468;DHT22;12634;50.852;5.676;2023-02-28T07:03:36;-0.20;99.90
24468;DHT22;12634;50.852;5.676;2023-02-28T07:06:04;0.20;99.90
24468;DHT22;12634;50.852;5.676;2023-02-28T07:08:33;0.50;99.90
24468;DHT22;12634;50.852;5.676;2023-02-28T07:11:00;0.90;99.90
24468;DHT22;12634;50.852;5.676;2023-02-28T07:13:28;1.10;99.90
24468;DHT22;12634;50.852;5.676;2023-02-28T07:15:56;1.40;99.90
24468;DHT22;12634;50.852;5.676;2023-02-28T07:18:25;1.50;99.90
24468;DHT22;12634;50.852;5.676;2023-02-28T07:20:53;1.70;99.90
24468;DHT22;12634;50.852;5.676;2023-02-28T07:23:20;1.70;99.90
24468;DHT22;12634;50.852;5.676;2023-02-28T07:25:48;2.40;99.90
24468;DHT22;12634;50.852;5.676;2023-02-28T07:28:16;2.30;99.90
24468;DHT22;12634;50.852;5.676;2023-02-28T07:30:43;2.50;99.90
24468;DHT22;12634;50.852;5.676;2023-02-28T07:33:10;2.70;99.90
24468;DHT22;12634;50.852;5.676;2023-02-28T07:35:39;2.80;99.90
24468;DHT22;12634;50.852;5.676;2023-02-28T07:38:06;2.80;99.90
24468;DHT22;12634;50.852;5.676;2023-02-28T07:40:34;3.20;99.90
24468;DHT22;12634;50.852;5.676;2023-02-28T07:43:02;3.20;99.90
24468;DHT22;12634;50.852;5.676;2023-02-28T07:45:30;3.20;99.90
24468;DHT22;12634;50.852;5.676;2023-02-28T07:48:00;3.60;99.90
24468;DHT22;12634;50.852;5.676;2023-02-28T07:50:27;3.40;99.90
24468;DHT22;12634;50.852;5.676;2023-02-28T07:52:58;3.70;99.90
24468;DHT22;12634;50.852;5.676;2023-02-28T07:55:25;3.80;99.90
24468;DHT22;12634;50.852;5.676;2023-02-28T07:57:53;4.00;99.90
24468;DHT22;12634;50.852;5.676;2023-02-28T08:00:21;3.80;99.90
24468;DHT22;12634;50.852;5.676;2023-02-28T08:02:48;4.10;99.90
24468;DHT22;12634;50.852;5.676;2023-02-28T08:05:16;4.00;99.90
24468;DHT22;12634;50.852;5.676;2023-02-28T08:07:43;4.10;99.90
24468;DHT22;12634;50.852;5.676;2023-02-28T08:10:12;4.00;99.90
24468;DHT22;12634;50.852;5.676;2023-02-28T08:12:39;4.10;99.90
24468;DHT22;12634;50.852;5.676;2023-02-28T08:15:07;4.40;99.90
24468;DHT22;12634;50.852;5.676;2023-02-28T08:17:34;4.80;99.90
24468;DHT22;12634;50.852;5.676;2023-02-28T08:20:02;4.60;99.90
24468;DHT22;12634;50.852;5.676;2023-02-28T08:22:29;4.70;99.90
24468;DHT22;12634;50.852;5.676;2023-02-28T08:24:56;4.60;99.90
24468;DHT22;12634;50.852;5.676;2023-02-28T08:27:25;4.80;99.90
24468;DHT22;12634;50.852;5.676;2023-02-28T08:29:52;4.70;99.90
24468;DHT22;12634;50.852;5.676;2023-02-28T08:32:19;4.80;99.90
24468;DHT22;12634;50.852;5.676;2023-02-28T08:34:46;4.80;99.90
24468;DHT22;12634;50.852;5.676;2023-02-28T08:37:13;4.90;99.90
24468;DHT22;12634;50.852;5.676;2023-02-28T08:39:40;5.20;99.90
24468;DHT22;12634;50.852;5.676;2023-02-28T08:42:08;5.60;99.90
24468;DHT22;12634;50.852;5.676;2023-02-28T08:44:36;5.40;99.90
24468;DHT22;12634;50.852;5.676;2023-02-28T08:47:03;4.80;99.90
24468;DHT22;12634;50.852;5.676;2023-02-28T08:49:31;5.00;99.90
24468;DHT22;12634;50.852;5.676;2023-02-28T08:51:58;5.30;99.90
24468;DHT22;12634;50.852;5.676;2023-02-28T08:54:25;5.70;99.90
24468;DHT22;12634;50.852;5.676;2023-02-28T08:56:54;5.60;99.90
24468;DHT22;12634;50.852;5.676;2023-02-28T08:59:21;5.40;99.90
24468;DHT22;12634;50.852;5.676;2023-02-28T09:01:50;5.40;99.90
24468;DHT22;12634;50.852;5.676;2023-02-28T09:04:17;5.50;99.90
24468;DHT22;12634;50.852;5.676;2023-02-28T09:06:44;5.40;99.90
24468;DHT22;12634;50.852;5.676;2023-02-28T09:09:11;5.50;99.90
24468;DHT22;12634;50.852;5.676;2023-02-28T09:11:38;5.70;99.90
24468;DHT22;12634;50.852;5.676;2023-02-28T09:14:06;5.40;99.90
24468;DHT22;12634;50.852;5.676;2023-02-28T09:16:34;5.80;99.90
24468;DHT22;12634;50.852;5.676;2023-02-28T09:19:02;5.90;99.90
24468;DHT22;12634;50.852;5.676;2023-02-28T09:21:29;5.90;99.90
24468;DHT22;12634;50.852;5.676;2023-02-28T09:23:56;6.10;99.90
24468;DHT22;12634;50.852;5.676;2023-02-28T09:26:25;6.30;99.90
24468;DHT22;12634;50.852;5.676;2023-02-28T09:28:54;5.70;99.90
24468;DHT22;12634;50.852;5.676;2023-02-28T09:31:23;5.50;99.90
24468;DHT22;12634;50.852;5.676;2023-02-28T09:33:52;5.60;99.90
24468;DHT22;12634;50.852;5.676;2023-02-28T09:36:22;5.70;99.90
24468;DHT22;12634;50.852;5.676;2023-02-28T09:38:49;6.20;99.90
24468;DHT22;12634;50.852;5.676;2023-02-28T09:41:21;6.00;99.90
24468;DHT22;12634;50.852;5.676;2023-02-28T09:43:51;5.40;99.90
24468;DHT22;12634;50.852;5.676;2023-02-28T09:46:30;5.20;99.90
24468;DHT22;12634;50.852;5.676;2023-02-28T09:49:00;5.80;99.90
24468;DHT22;12634;50.852;5.676;2023-02-28T09:51:36;5.70;99.90
24468;DHT22;12634;50.852;5.676;2023-02-28T09:54:10;5.50;99.90
24468;DHT22;12634;50.852;5.676;2023-02-28T09:56:41;5.10;99.90
24468;DHT22;12634;50.852;5.676;2023-02-28T09:59:18;4.90;99.90
24468;DHT22;12634;50.852;5.676;2023-02-28T10:01:54;4.90;99.90
24468;DHT22;12634;50.852;5.676;2023-02-28T10:04:36;5.20;99.90
24468;DHT22;12634;50.852;5.676;2023-02-28T10:07:14;5.50;99.90
24468;DHT22;12634;50.852;5.676;2023-02-28T10:09:48;5.30;99.90
24468;DHT22;12634;50.852;5.676;2023-02-28T10:12:18;5.80;99.90
24468;DHT22;12634;50.852;5.676;2023-02-28T10:14:49;6.10;99.90
24468;DHT22;12634;50.852;5.676;2023-02-28T10:17:21;6.00;99.90
24468;DHT22;12634;50.852;5.676;2023-02-28T10:19:56;6.10;99.90
24468;DHT22;12634;50.852;5.676;2023-02-28T10:22:33;5.90;99.90
24468;DHT22;12634;50.852;5.676;2023-02-28T10:25:04;5.70;99.80
24468;DHT22;12634;50.852;5.676;2023-02-28T10:27:32;5.80;99.00
24468;DHT22;12634;50.852;5.676;2023-02-28T10:30:01;5.40;99.90
24468;DHT22;12634;50.852;5.676;2023-02-28T10:32:31;4.60;99.90
24468;DHT22;12634;50.852;5.676;2023-02-28T10:35:06;4.70;99.90
24468;DHT22;12634;50.852;5.676;2023-02-28T10:37:39;4.40;99.90
24468;DHT22;12634;50.852;5.676;2023-02-28T10:40:26;3.90;99.90
24468;DHT22;12634;50.852;5.676;2023-02-28T10:42:56;3.50;99.90
24468;DHT22;12634;50.852;5.676;2023-02-28T10:45:24;3.30;99.90
24468;DHT22;12634;50.852;5.676;2023-02-28T10:47:53;3.30;99.90
24468;DHT22;12634;50.852;5.676;2023-02-28T10:50:37;3.70;99.90
24468;DHT22;12634;50.852;5.676;2023-02-28T10:53:22;3.70;99.90
24468;DHT22;12634;50.852;5.676;2023-02-28T10:55:57;3.50;99.50
24468;DHT22;12634;50.852;5.676;2023-02-28T10:58:25;3.50;98.50
24468;DHT22;12634;50.852;5.676;2023-02-28T11:00:53;3.50;97.90
24468;DHT22;12634;50.852;5.676;2023-02-28T11:03:34;3.80;98.10
24468;DHT22;12634;50.852;5.676;2023-02-28T11:06:06;3.90;97.30
24468;DHT22;12634;50.852;5.676;2023-02-28T11:08:44;4.30;97.30
24468;DHT22;12634;50.852;5.676;2023-02-28T11:11:12;5.60;98.10
24468;DHT22;12634;50.852;5.676;2023-02-28T11:13:40;5.90;95.90
24468;DHT22;12634;50.852;5.676;2023-02-28T11:16:11;5.70;96.40
24468;DHT22;12634;50.852;5.676;2023-02-28T11:18:42;5.60;96.90
24468;DHT22;12634;50.852;5.676;2023-02-28T11:21:16;6.40;96.90
24468;DHT22;12634;50.852;5.676;2023-02-28T11:23:48;7.00;95.70
24468;DHT22;12634;50.852;5.676;2023-02-28T11:26:17;7.30;96.30
24468;DHT22;12634;50.852;5.676;2023-02-28T11:29:17;7.10;94.90
24468;DHT22;12634;50.852;5.676;2023-02-28T11:32:05;6.80;96.50
24468;DHT22;12634;50.852;5.676;2023-02-28T11:34:33;5.90;95.00
24468;DHT22;12634;50.852;5.676;2023-02-28T11:37:01;5.40;95.30
24468;DHT22;12634;50.852;5.676;2023-02-28T11:39:33;5.20;95.40
24468;DHT22;12634;50.852;5.676;2023-02-28T11:42:39;6.00;95.20
24468;DHT22;12634;50.852;5.676;2023-02-28T11:45:26;6.70;95.80
24468;DHT22;12634;50.852;5.676;2023-02-28T11:48:01;5.90;93.60
24468;DHT22;12634;50.852;5.676;2023-02-28T11:50:43;5.80;95.30
24468;DHT22;12634;50.852;5.676;2023-02-28T11:53:19;5.70;95.80
24468;DHT22;12634;50.852;5.676;2023-02-28T11:55:54;6.30;94.50
24468;DHT22;12634;50.852;5.676;2023-02-28T11:58:32;6.40;93.90
24468;DHT22;12634;50.852;5.676;2023-02-28T12:01:15;6.60;94.50
24468;DHT22;12634;50.852;5.676;2023-02-28T12:03:50;7.00;93.00
24468;DHT22;12634;50.852;5.676;2023-02-28T12:06:27;7.30;94.40
24468;DHT22;12634;50.852;5.676;2023-02-28T12:09:05;7.60;94.70
24468;DHT22;12634;50.852;5.676;2023-02-28T12:11:48;7.70;93.20
24468;DHT22;12634;50.852;5.676;2023-02-28T12:14:46;7.70;93.30
24468;DHT22;12634;50.852;5.676;2023-02-28T12:17:32;7.20;93.50
24468;DHT22;12634;50.852;5.676;2023-02-28T12:20:08;7.50;93.60
24468;DHT22;12634;50.852;5.676;2023-02-28T12:22:47;7.50;93.30
24468;DHT22;12634;50.852;5.676;2023-02-28T12:28:17;7.40;92.40
24468;DHT22;12634;50.852;5.676;2023-02-28T12:30:51;7.20;93.70
24468;DHT22;12634;50.852;5.676;2023-02-28T12:33:24;7.60;93.20
24468;DHT22;12634;50.852;5.676;2023-02-28T12:35:57;7.80;94.10
24468;DHT22;12634;50.852;5.676;2023-02-28T12:38:28;8.00;92.70
24468;DHT22;12634;50.852;5.676;2023-02-28T12:40:59;8.30;93.20
24468;DHT22;12634;50.852;5.676;2023-02-28T12:43:32;8.60;93.10
24468;DHT22;12634;50.852;5.676;2023-02-28T12:46:03;8.60;91.10
24468;DHT22;12634;50.852;5.676;2023-02-28T12:48:40;8.10;91.50
24468;DHT22;12634;50.852;5.676;2023-02-28T12:51:10;8.10;92.00
24468;DHT22;12634;50.852;5.676;2023-02-28T12:53:50;7.80;91.70
24468;DHT22;12634;50.852;5.676;2023-02-28T12:56:24;6.70;92.50
24468;DHT22;12634;50.852;5.676;2023-02-28T12:59:01;6.90;92.40
24468;DHT22;12634;50.852;5.676;2023-02-28T13:01:51;7.30;92.30
24468;DHT22;12634;50.852;5.676;2023-02-28T13:07:56;8.30;92.80
24468;DHT22;12634;50.852;5.676;2023-02-28T13:10:42;8.20;92.10
24468;DHT22;12634;50.852;5.676;2023-02-28T13:13:15;8.30;92.10
24468;DHT22;12634;50.852;5.676;2023-02-28T13:16:03;8.80;91.90
24468;DHT22;12634;50.852;5.676;2023-02-28T13:18:34;8.30;92.40
24468;DHT22;12634;50.852;5.676;2023-02-28T13:21:04;8.50;93.70
24468;DHT22;12634;50.852;5.676;2023-02-28T13:23:57;8.90;91.50
24468;DHT22;12634;50.852;5.676;2023-02-28T13:29:35;8.80;91.50
24468;DHT22;12634;50.852;5.676;2023-02-28T13:38:31;8.70;92.00
24468;DHT22;12634;50.852;5.676;2023-02-28T13:44:00;8.80;92.10
24468;DHT22;12634;50.852;5.676;2023-02-28T13:46:29;8.90;91.10
24468;DHT22;12634;50.852;5.676;2023-02-28T13:48:56;8.70;91.70
24468;DHT22;12634;50.852;5.676;2023-02-28T13:51:45;8.70;92.80
24468;DHT22;12634;50.852;5.676;2023-02-28T13:54:27;8.50;92.10
24468;DHT22;12634;50.852;5.676;2023-02-28T13:57:09;8.30;91.50
24468;DHT22;12634;50.852;5.676;2023-02-28T13:59:47;8.40;93.00
24468;DHT22;12634;50.852;5.676;2023-02-28T14:02:42;8.70;91.70
24468;DHT22;12634;50.852;5.676;2023-02-28T14:05:15;8.50;92.70
24468;DHT22;12634;50.852;5.676;2023-02-28T14:07:46;8.80;92.10
24468;DHT22;12634;50.852;5.676;2023-02-28T14:10:27;8.90;92.30
24468;DHT22;12634;50.852;5.676;2023-02-28T14:12:58;8.50;92.30
24468;DHT22;12634;50.852;5.676;2023-02-28T14:15:39;8.50;92.10
24468;DHT22;12634;50.852;5.676;2023-02-28T14:18:20;8.40;92.30
24468;DHT22;12634;50.852;5.676;2023-02-28T14:20:49;8.50;92.90
24468;DHT22;12634;50.852;5.676;2023-02-28T14:23:32;8.70;92.20
24468;DHT22;12634;50.852;5.676;2023-02-28T14:26:10;9.00;91.50
24468;DHT22;12634;50.852;5.676;2023-02-28T14:28:52;8.40;92.70
24468;DHT22;12634;50.852;5.676;2023-02-28T14:31:29;8.40;92.40
24468;DHT22;12634;50.852;5.676;2023-02-28T14:34:13;8.80;91.70
24468;DHT22;12634;50.852;5.676;2023-02-28T14:36:44;8.70;91.60
24468;DHT22;12634;50.852;5.676;2023-02-28T14:39:13;9.00;91.90
24468;DHT22;12634;50.852;5.676;2023-02-28T14:41:43;9.00;91.90
24468;DHT22;12634;50.852;5.676;2023-02-28T14:44:16;8.60;91.90
24468;DHT22;12634;50.852;5.676;2023-02-28T14:46:45;8.90;91.60
24468;DHT22;12634;50.852;5.676;2023-02-28T14:49:24;8.60;92.10
24468;DHT22;12634;50.852;5.676;2023-02-28T14:52:03;7.90;92.50
24468;DHT22;12634;50.852;5.676;2023-02-28T14:54:32;8.20;92.70
24468;DHT22;12634;50.852;5.676;2023-02-28T14:57:01;8.20;91.90
24468;DHT22;12634;50.852;5.676;2023-02-28T14:59:30;8.30;92.10
24468;DHT22;12634;50.852;5.676;2023-02-28T15:02:18;7.90;92.30
24468;DHT22;12634;50.852;5.676;2023-02-28T15:04:53;8.20;92.10
24468;DHT22;12634;50.852;5.676;2023-02-28T15:07:21;8.10;92.50
24468;DHT22;12634;50.852;5.676;2023-02-28T15:10:13;8.20;91.90
24468;DHT22;12634;50.852;5.676;2023-02-28T15:12:48;8.40;92.50
24468;DHT22;12634;50.852;5.676;2023-02-28T15:15:17;8.40;92.40
24468;DHT22;12634;50.852;5.676;2023-02-28T15:17:46;8.30;93.30
24468;DHT22;12634;50.852;5.676;2023-02-28T15:20:16;8.40;93.00
24468;DHT22;12634;50.852;5.676;2023-02-28T15:22:46;8.30;93.10
24468;DHT22;12634;50.852;5.676;2023-02-28T15:25:18;8.40;93.10
24468;DHT22;12634;50.852;5.676;2023-02-28T15:27:50;8.10;92.40
24468;DHT22;12634;50.852;5.676;2023-02-28T15:30:20;7.90;93.70
24468;DHT22;12634;50.852;5.676;2023-02-28T15:33:04;8.00;92.60
24468;DHT22;12634;50.852;5.676;2023-02-28T15:35:33;8.00;92.40
24468;DHT22;12634;50.852;5.676;2023-02-28T15:38:02;7.60;92.50
24468;DHT22;12634;50.852;5.676;2023-02-28T15:40:33;7.20;92.90
24468;DHT22;12634;50.852;5.676;2023-02-28T15:43:13;7.60;93.30
24468;DHT22;12634;50.852;5.676;2023-02-28T15:45:45;7.40;93.20
24468;DHT22;12634;50.852;5.676;2023-02-28T15:48:19;7.20;93.10
24468;DHT22;12634;50.852;5.676;2023-02-28T15:50:49;7.40;93.40
24468;DHT22;12634;50.852;5.676;2023-02-28T15:53:19;7.30;93.70
24468;DHT22;12634;50.852;5.676;2023-02-28T15:55:58;7.40;93.40
24468;DHT22;12634;50.852;5.676;2023-02-28T15:58:27;7.20;93.50
24468;DHT22;12634;50.852;5.676;2023-02-28T16:01:08;7.10;93.50
24468;DHT22;12634;50.852;5.676;2023-02-28T16:03:41;6.80;94.00
24468;DHT22;12634;50.852;5.676;2023-02-28T16:06:26;7.10;93.60
24468;DHT22;12634;50.852;5.676;2023-02-28T16:08:57;6.90;94.60
24468;DHT22;12634;50.852;5.676;2023-02-28T16:11:25;6.90;94.30
24468;DHT22;12634;50.852;5.676;2023-02-28T16:13:54;6.60;94.40
24468;DHT22;12634;50.852;5.676;2023-02-28T16:16:24;6.50;94.90
24468;DHT22;12634;50.852;5.676;2023-02-28T16:18:52;6.40;95.20
24468;DHT22;12634;50.852;5.676;2023-02-28T16:21:19;6.20;95.30
24468;DHT22;12634;50.852;5.676;2023-02-28T16:23:47;6.10;95.50
24468;DHT22;12634;50.852;5.676;2023-02-28T16:26:19;5.90;95.50
24468;DHT22;12634;50.852;5.676;2023-02-28T16:28:47;5.70;95.60
24468;DHT22;12634;50.852;5.676;2023-02-28T16:31:15;5.50;96.00
24468;DHT22;12634;50.852;5.676;2023-02-28T16:33:44;5.10;96.50
24468;DHT22;12634;50.852;5.676;2023-02-28T16:36:16;4.70;97.50